createdAt,value
2022-12-09T00:01:15.541Z,5.30
2022-12-09T00:03:43.114Z,5.50
2022-12-09T00:06:13.226Z,5.35
2022-12-09T00:08:40.433Z,5.55
2022-12-09T00:11:07.909Z,6.13
2022-12-09T00:13:35.595Z,5.57
2022-12-09T00:16:11.341Z,6.63
2022-12-09T00:18:38.839Z,5.57
2022-12-09T00:21:17.232Z,6.15
2022-12-09T00:23:44.386Z,4.87
2022-12-09T00:26:12.001Z,5.32
2022-12-09T00:28:39.686Z,5.45
2022-12-09T00:31:07.573Z,4.45
2022-12-09T00:33:35.551Z,5.15
2022-12-09T00:36:05.329Z,4.77
2022-12-09T00:38:32.673Z,5.22
2022-12-09T00:40:59.758Z,5.75
2022-12-09T00:43:27.137Z,5.07
2022-12-09T00:45:54.556Z,5.57
2022-12-09T00:48:21.616Z,5.93
2022-12-09T00:50:48.979Z,5.40
2022-12-09T00:53:16.005Z,4.78
2022-12-09T00:55:44.517Z,5.35
2022-12-09T00:58:12.377Z,5.15
2022-12-09T01:00:40.454Z,5.80
2022-12-09T01:03:13.009Z,5.25
2022-12-09T01:05:41.388Z,5.10
2022-12-09T01:08:11.144Z,5.38
2022-12-09T01:10:39.951Z,5.72
2022-12-09T01:13:07.748Z,4.83
2022-12-09T01:15:35.199Z,5.80
2022-12-09T01:18:02.919Z,5.82
2022-12-09T01:20:30.048Z,5.15
2022-12-09T01:22:57.182Z,5.85
2022-12-09T01:25:24.419Z,5.50
2022-12-09T01:27:51.475Z,6.03
2022-12-09T01:30:18.803Z,6.93
2022-12-09T01:32:47.085Z,6.47
2022-12-09T01:35:14.438Z,6.78
2022-12-09T01:37:41.606Z,6.07
2022-12-09T01:40:18.364Z,6.35
2022-12-09T01:42:46.055Z,6.90
2022-12-09T01:45:23.586Z,7.68
2022-12-09T01:47:55.119Z,6.97
2022-12-09T01:50:22.736Z,6.53
2022-12-09T01:52:50.106Z,6.68
2022-12-09T01:55:17.541Z,5.88
2022-12-09T01:57:45.626Z,6.30
2022-12-09T02:00:14.002Z,6.90
2022-12-09T02:02:43.971Z,6.37
2022-12-09T02:05:11.985Z,6.20
2022-12-09T02:07:39.642Z,5.88
2022-12-09T02:10:11.518Z,6.55
2022-12-09T02:13:05.201Z,6.18
2022-12-09T02:16:02.041Z,6.17
2022-12-09T02:18:37.342Z,5.38
2022-12-09T02:21:09.560Z,6.95
2022-12-09T02:23:48.381Z,6.40
2022-12-09T02:26:31.590Z,6.30
2022-12-09T02:29:26.090Z,6.43
2022-12-09T02:32:12.319Z,6.32
2022-12-09T02:34:46.804Z,6.20
2022-12-09T02:37:37.042Z,5.97
2022-12-09T02:40:12.476Z,6.45
2022-12-09T02:42:40.662Z,6.33
2022-12-09T02:45:08.853Z,6.53
2022-12-09T02:47:39.524Z,6.50
2022-12-09T02:50:10.057Z,6.53
2022-12-09T02:52:38.265Z,5.55
2022-12-09T02:55:07.846Z,6.53
2022-12-09T02:57:35.431Z,6.63
2022-12-09T03:00:04.554Z,7.38
2022-12-09T03:02:36.142Z,6.25
2022-12-09T03:05:12.607Z,5.80
2022-12-09T03:07:51.413Z,5.67
2022-12-09T03:10:26.386Z,5.72
2022-12-09T03:13:01.028Z,5.95
2022-12-09T03:15:31.747Z,5.55
2022-12-09T03:18:00.023Z,5.72
2022-12-09T03:20:29.109Z,6.70
2022-12-09T03:23:00.343Z,6.40
2022-12-09T03:25:39.755Z,6.15
2022-12-09T03:28:11.544Z,6.30
2022-12-09T03:30:40.940Z,5.70
2022-12-09T03:33:09.020Z,5.20
2022-12-09T03:35:39.503Z,6.13
2022-12-09T03:38:08.573Z,5.07
2022-12-09T03:40:36.581Z,5.57
2022-12-09T03:43:07.791Z,6.38
2022-12-09T03:45:34.927Z,5.93
2022-12-09T03:48:02.888Z,6.03
2022-12-09T03:50:35.185Z,6.60
2022-12-09T03:53:10.448Z,5.55
2022-12-09T03:55:46.890Z,5.40
2022-12-09T03:58:15.094Z,5.10
2022-12-09T04:00:42.950Z,5.03
2022-12-09T04:03:12.823Z,5.13
2022-12-09T04:05:40.280Z,4.75
2022-12-09T04:08:07.440Z,4.53
2022-12-09T04:10:34.593Z,4.43
2022-12-09T04:13:01.953Z,5.47
2022-12-09T04:15:29.361Z,5.22
2022-12-09T04:17:56.631Z,4.80
2022-12-09T04:20:23.774Z,4.68
2022-12-09T04:22:51.104Z,5.10
2022-12-09T04:25:18.313Z,4.70
2022-12-09T04:27:45.600Z,4.93
2022-12-09T04:30:13.584Z,5.07
2022-12-09T04:32:41.237Z,5.45
2022-12-09T04:35:08.839Z,5.40
2022-12-09T04:37:37.505Z,5.25
2022-12-09T04:40:06.745Z,5.32
2022-12-09T04:42:34.684Z,5.43
2022-12-09T04:45:02.327Z,4.90
2022-12-09T04:47:29.613Z,4.93
2022-12-09T04:49:57.078Z,4.85
2022-12-09T04:52:24.155Z,4.43
2022-12-09T04:54:51.287Z,4.47
2022-12-09T04:57:18.881Z,4.50
2022-12-09T04:59:45.986Z,4.30
2022-12-09T05:02:13.457Z,4.65
2022-12-09T05:04:42.944Z,4.03
2022-12-09T05:07:11.785Z,4.40
2022-12-09T05:09:39.232Z,4.13
2022-12-09T05:12:07.411Z,5.10
2022-12-09T05:14:34.569Z,4.78
2022-12-09T05:17:03.675Z,4.75
2022-12-09T05:19:31.041Z,4.50
2022-12-09T05:21:58.236Z,4.50
2022-12-09T05:24:25.457Z,4.93
2022-12-09T05:26:53.054Z,4.95
2022-12-09T05:29:23.097Z,4.57
2022-12-09T05:31:51.726Z,4.90
2022-12-09T05:34:19.274Z,4.68
2022-12-09T05:36:46.879Z,4.90
2022-12-09T05:39:14.631Z,4.75
2022-12-09T05:41:43.445Z,4.75
2022-12-09T05:44:14.664Z,5.38
2022-12-09T05:46:41.958Z,5.63
2022-12-09T05:49:09.522Z,4.63
2022-12-09T05:51:36.825Z,5.25
2022-12-09T05:54:05.883Z,4.88
2022-12-09T05:56:33.743Z,5.07
2022-12-09T05:59:01.499Z,5.43
2022-12-09T06:01:28.766Z,5.33
2022-12-09T06:03:56.470Z,4.55
2022-12-09T06:06:31.325Z,5.35
2022-12-09T06:09:00.981Z,5.50
2022-12-09T06:11:29.249Z,5.72
2022-12-09T06:13:56.937Z,5.00
2022-12-09T06:16:24.990Z,4.68
2022-12-09T06:18:52.599Z,5.70
2022-12-09T06:21:20.980Z,4.80
2022-12-09T06:23:49.075Z,5.30
2022-12-09T06:26:25.616Z,5.83
2022-12-09T06:28:53.663Z,4.93
2022-12-09T06:31:21.616Z,5.25
2022-12-09T06:33:55.577Z,5.65
2022-12-09T06:36:23.713Z,5.60
2022-12-09T06:38:51.386Z,7.17
2022-12-09T06:41:18.682Z,5.75
2022-12-09T06:43:46.270Z,5.70
2022-12-09T06:46:15.309Z,5.50
2022-12-09T06:48:43.013Z,4.97
2022-12-09T06:51:11.275Z,6.23
2022-12-09T06:53:38.700Z,5.88
2022-12-09T06:56:11.720Z,5.07
2022-12-09T06:58:42.262Z,5.93
2022-12-09T07:01:14.230Z,5.50
2022-12-09T07:03:43.930Z,5.73
2022-12-09T07:06:31.073Z,4.53
2022-12-09T07:09:01.011Z,6.60
2022-12-09T07:11:29.238Z,6.38
2022-12-09T07:13:56.861Z,5.50
2022-12-09T07:16:24.703Z,5.43
2022-12-09T07:18:52.733Z,5.50
2022-12-09T07:21:21.397Z,4.85
2022-12-09T07:23:49.125Z,5.25
2022-12-09T07:26:17.666Z,5.30
2022-12-09T07:28:50.414Z,4.60
2022-12-09T07:31:26.563Z,4.57
2022-12-09T07:33:56.448Z,4.88
2022-12-09T07:36:25.873Z,4.35
2022-12-09T07:38:58.120Z,4.40
2022-12-09T07:41:26.640Z,4.57
2022-12-09T07:43:53.888Z,5.13
2022-12-09T07:46:23.356Z,4.57
2022-12-09T07:48:51.068Z,5.10
2022-12-09T07:51:18.626Z,4.53
2022-12-09T07:53:46.920Z,5.50
2022-12-09T07:56:15.708Z,4.57
2022-12-09T07:58:44.052Z,4.18
2022-12-09T08:01:13.423Z,4.53
2022-12-09T08:03:44.326Z,3.97
2022-12-09T08:06:13.810Z,4.20
2022-12-09T08:08:41.416Z,4.78
2022-12-09T08:11:17.189Z,4.53
2022-12-09T08:13:44.564Z,4.38
2022-12-09T08:16:13.643Z,4.57
2022-12-09T08:18:42.157Z,5.17
2022-12-09T08:21:13.419Z,4.00
2022-12-09T08:23:41.115Z,4.22
2022-12-09T08:26:09.828Z,4.07
2022-12-09T08:28:37.936Z,3.78
2022-12-09T08:31:14.697Z,4.33
2022-12-09T08:33:42.681Z,4.28
2022-12-09T08:36:13.185Z,4.13
2022-12-09T08:38:40.755Z,4.70
2022-12-09T08:41:22.903Z,4.13
2022-12-09T08:43:50.151Z,4.30
2022-12-09T08:46:17.873Z,3.90
2022-12-09T08:48:45.635Z,3.92
2022-12-09T08:51:13.204Z,4.40
2022-12-09T08:53:40.756Z,4.38
2022-12-09T08:56:12.759Z,4.20
2022-12-09T08:58:41.086Z,4.65
2022-12-09T09:01:15.700Z,6.82
2022-12-09T09:03:43.933Z,4.97
2022-12-09T09:06:12.217Z,4.63
2022-12-09T09:08:39.834Z,5.03
2022-12-09T09:11:16.883Z,4.93
2022-12-09T09:13:46.164Z,4.70
2022-12-09T09:16:15.974Z,4.40
2022-12-09T09:18:43.796Z,4.45
2022-12-09T09:21:13.295Z,4.50
2022-12-09T09:23:42.018Z,3.92
2022-12-09T09:26:14.500Z,4.68
2022-12-09T09:28:41.868Z,4.85
2022-12-09T09:31:11.674Z,3.90
2022-12-09T09:33:39.185Z,4.70
2022-12-09T09:36:10.531Z,4.22
2022-12-09T09:38:39.426Z,4.53
2022-12-09T09:41:38.627Z,4.65
2022-12-09T09:44:17.436Z,4.97
2022-12-09T09:46:46.888Z,3.97
2022-12-09T09:49:19.792Z,4.53
2022-12-09T09:51:47.687Z,4.38
2022-12-09T09:54:16.072Z,4.25
2022-12-09T09:56:55.137Z,4.55
2022-12-09T09:59:46.861Z,2.83
2022-12-09T10:02:22.866Z,4.88
2022-12-09T10:05:17.906Z,4.95
2022-12-09T10:07:51.570Z,4.97
2022-12-09T10:10:37.717Z,4.80
2022-12-09T10:13:19.825Z,5.00
2022-12-09T10:16:11.407Z,5.50
2022-12-09T10:19:06.024Z,4.75
2022-12-09T10:21:41.111Z,4.63
2022-12-09T10:24:35.866Z,4.25
2022-12-09T10:27:39.791Z,4.03
2022-12-09T10:30:12.109Z,5.05
2022-12-09T10:32:40.328Z,3.33
2022-12-09T10:35:14.332Z,4.28
2022-12-09T10:37:41.738Z,4.78
2022-12-09T10:40:12.123Z,4.60
2022-12-09T10:43:15.445Z,2.17
2022-12-09T10:48:49.092Z,3.97
2022-12-09T10:51:19.682Z,4.55
2022-12-09T10:53:54.178Z,5.10
2022-12-09T10:56:33.470Z,4.80
2022-12-09T10:59:22.484Z,4.90
2022-12-09T11:01:52.764Z,4.15
2022-12-09T11:04:28.280Z,4.55
2022-12-09T11:07:19.924Z,4.37
2022-12-09T11:09:50.415Z,4.28
2022-12-09T11:12:27.262Z,3.22
2022-12-09T11:15:19.938Z,3.28
2022-12-09T11:17:59.701Z,4.53
2022-12-09T11:20:29.615Z,4.03
2022-12-09T11:23:01.628Z,4.57
2022-12-09T11:25:31.785Z,4.38
2022-12-09T11:28:15.807Z,4.10
2022-12-09T11:31:20.404Z,3.30
2022-12-09T11:33:54.801Z,3.53
2022-12-09T11:36:29.873Z,3.45
2022-12-09T11:39:28.995Z,3.85
2022-12-09T11:42:18.865Z,3.67
2022-12-09T11:44:54.401Z,3.58
2022-12-09T11:47:44.854Z,3.43
2022-12-09T11:50:22.632Z,4.00
2022-12-09T11:53:11.623Z,3.63
2022-12-09T11:55:45.172Z,3.88
2022-12-09T11:58:16.134Z,3.97
2022-12-09T12:00:49.309Z,3.60
2022-12-09T12:03:21.036Z,3.92
2022-12-09T12:05:50.636Z,5.32
2022-12-09T12:08:27.551Z,6.15
2022-12-09T12:10:59.719Z,5.65
2022-12-09T12:13:39.144Z,5.57
2022-12-09T12:16:12.467Z,5.43
2022-12-09T12:18:48.815Z,4.88
2022-12-09T12:21:20.243Z,5.55
2022-12-09T12:24:14.049Z,5.03
2022-12-09T12:27:04.915Z,4.67
2022-12-09T12:29:46.397Z,5.45
2022-12-09T12:32:37.440Z,4.95
2022-12-09T12:35:16.141Z,4.78
2022-12-09T12:38:08.493Z,5.07
2022-12-09T12:40:50.840Z,5.13
2022-12-09T12:43:48.533Z,2.67
2022-12-09T12:46:32.259Z,5.93
2022-12-09T12:49:02.321Z,5.22
2022-12-09T12:51:41.117Z,6.05
2022-12-09T12:54:17.004Z,5.70
2022-12-09T12:56:52.442Z,5.18
2022-12-09T12:59:35.492Z,5.10
2022-12-09T13:02:14.518Z,2.67
2022-12-09T13:04:48.937Z,5.65
2022-12-09T13:07:28.082Z,5.77
2022-12-09T13:10:02.127Z,5.13
2022-12-09T13:12:54.444Z,5.97
2022-12-09T13:15:25.774Z,5.55
2022-12-09T13:17:53.910Z,6.95
2022-12-09T13:20:25.178Z,6.23
2022-12-09T13:23:13.628Z,5.47
2022-12-09T13:25:48.921Z,5.38
2022-12-09T13:28:27.405Z,6.15
2022-12-09T13:30:57.883Z,6.28
2022-12-09T13:33:40.019Z,6.50
2022-12-09T13:36:18.759Z,7.50
2022-12-09T13:38:45.828Z,6.60
2022-12-09T13:41:30.975Z,6.38
2022-12-09T13:44:13.053Z,5.72
2022-12-09T13:46:42.745Z,6.53
2022-12-09T13:49:20.494Z,6.63
2022-12-09T13:51:52.243Z,5.82
2022-12-09T13:54:22.357Z,6.45
2022-12-09T13:57:09.702Z,6.40
2022-12-09T13:59:43.627Z,6.03
2022-12-09T14:02:26.011Z,5.90
2022-12-09T14:05:05.079Z,6.40
2022-12-09T14:07:52.306Z,6.03
2022-12-09T14:10:41.565Z,6.68
2022-12-09T14:13:28.321Z,5.63
2022-12-09T14:16:27.989Z,6.10
2022-12-09T14:18:56.406Z,5.90
2022-12-09T14:21:26.853Z,7.47
2022-12-09T14:24:17.692Z,6.47
2022-12-09T14:27:08.978Z,5.70
2022-12-09T14:29:58.922Z,6.20
2022-12-09T14:32:34.224Z,5.72
2022-12-09T14:35:10.326Z,6.05
2022-12-09T14:37:52.477Z,5.18
2022-12-09T14:40:44.110Z,5.80
2022-12-09T14:43:44.619Z,5.72
2022-12-09T14:46:25.710Z,6.13
2022-12-09T14:49:13.164Z,6.60
2022-12-09T14:51:45.502Z,6.28
2022-12-09T14:54:42.652Z,5.57
2022-12-09T14:57:27.650Z,5.90
2022-12-09T14:59:56.430Z,6.00
2022-12-09T15:02:31.810Z,5.72
2022-12-09T15:05:01.241Z,5.72
2022-12-09T15:07:31.887Z,6.73
2022-12-09T15:10:08.353Z,5.93
2022-12-09T15:12:40.078Z,5.97
2022-12-09T15:15:10.151Z,6.18
2022-12-09T15:17:46.368Z,5.55
2022-12-09T15:20:31.451Z,6.37
2022-12-09T15:23:04.989Z,6.50
2022-12-09T15:25:32.430Z,6.30
2022-12-09T15:28:14.719Z,6.85
2022-12-09T15:30:41.780Z,6.40
2022-12-09T15:33:18.544Z,7.03
2022-12-09T15:35:58.668Z,6.05
2022-12-09T15:38:27.472Z,6.55
2022-12-09T15:41:15.279Z,6.30
2022-12-09T15:43:42.792Z,6.88
2022-12-09T15:46:11.018Z,6.40
2022-12-09T15:48:42.941Z,7.25
2022-12-09T15:51:13.615Z,7.97
2022-12-09T15:53:55.263Z,6.53
2022-12-09T15:56:31.353Z,6.15
2022-12-09T15:59:04.306Z,6.50
2022-12-09T16:01:32.841Z,6.72
2022-12-09T16:04:01.317Z,6.50
2022-12-09T16:06:31.107Z,6.07
2022-12-09T16:08:58.259Z,6.68
2022-12-09T16:11:57.877Z,6.77
2022-12-09T16:14:25.302Z,6.38
2022-12-09T16:17:01.935Z,5.95
2022-12-09T16:19:35.929Z,7.03
2022-12-09T16:22:19.697Z,6.30
2022-12-09T16:25:14.183Z,7.17
2022-12-09T16:27:48.584Z,5.97
2022-12-09T16:30:28.999Z,7.65
2022-12-09T16:33:01.041Z,7.68
2022-12-09T16:35:41.051Z,8.40
2022-12-09T16:38:11.140Z,7.40
2022-12-09T16:40:38.435Z,9.50
2022-12-09T16:43:20.356Z,7.63
2022-12-09T16:45:58.463Z,7.03
2022-12-09T16:48:27.555Z,7.38
2022-12-09T16:51:04.402Z,8.30
2022-12-09T16:53:34.556Z,8.25
2022-12-09T16:56:02.975Z,7.35
2022-12-09T16:58:32.251Z,7.80
2022-12-09T17:01:00.940Z,8.15
2022-12-09T17:03:51.746Z,6.40
2022-12-09T17:06:19.452Z,7.72
2022-12-09T17:08:47.038Z,6.75
2022-12-09T17:11:14.841Z,6.60
2022-12-09T17:13:42.011Z,7.97
2022-12-09T17:16:09.279Z,7.97
2022-12-09T17:18:36.471Z,7.60
2022-12-09T17:21:08.622Z,7.60
2022-12-09T17:23:39.725Z,8.13
2022-12-09T17:26:10.360Z,8.15
2022-12-09T17:28:38.337Z,8.17
2022-12-09T17:31:13.532Z,8.43
2022-12-09T17:33:40.944Z,8.30
2022-12-09T17:36:08.405Z,8.32
2022-12-09T17:38:35.567Z,8.27
2022-12-09T17:41:08.218Z,8.33
2022-12-09T17:43:35.934Z,8.13
2022-12-09T17:46:04.495Z,9.15
2022-12-09T17:48:33.362Z,8.68
2022-12-09T17:51:05.747Z,8.57
2022-12-09T17:53:35.667Z,9.20
2022-12-09T17:56:11.203Z,9.57
2022-12-09T17:58:38.703Z,9.48
2022-12-09T18:01:13.107Z,9.05
2022-12-09T18:03:55.506Z,9.00
2022-12-09T18:06:27.668Z,10.73
2022-12-09T18:08:54.862Z,10.02
2022-12-09T18:11:22.441Z,9.65
2022-12-09T18:13:49.695Z,9.60
2022-12-09T18:16:17.090Z,10.23
2022-12-09T18:18:44.364Z,10.90
2022-12-09T18:21:15.570Z,10.32
2022-12-09T18:23:43.539Z,11.02
2022-12-09T18:26:14.952Z,9.65
2022-12-09T18:28:42.307Z,10.75
2022-12-09T18:31:11.694Z,10.10
2022-12-09T18:33:38.883Z,9.98
2022-12-09T18:36:11.478Z,10.23
2022-12-09T18:38:39.011Z,10.02
2022-12-09T18:41:14.280Z,11.48
2022-12-09T18:43:43.027Z,11.63
2022-12-09T18:46:12.443Z,10.80
2022-12-09T18:48:39.991Z,11.57
2022-12-09T18:51:14.595Z,11.10
2022-12-09T18:53:41.933Z,11.50
2022-12-09T18:56:09.049Z,11.27
2022-12-09T18:59:04.864Z,11.98
2022-12-09T19:01:27.249Z,11.43
2022-12-09T19:03:57.157Z,10.23
2022-12-09T19:06:28.763Z,10.57
2022-12-09T19:08:59.163Z,10.97
2022-12-09T19:11:31.425Z,12.05
2022-12-09T19:13:59.015Z,11.50
2022-12-09T19:16:27.010Z,11.15
2022-12-09T19:18:54.706Z,11.80
2022-12-09T19:21:23.591Z,10.60
2022-12-09T19:23:50.865Z,11.27
2022-12-09T19:26:20.052Z,11.07
2022-12-09T19:28:52.757Z,11.73
2022-12-09T19:31:28.083Z,10.73
2022-12-09T19:33:56.335Z,11.53
2022-12-09T19:36:24.396Z,10.63
2022-12-09T19:38:51.715Z,11.45
2022-12-09T19:41:18.995Z,11.35
2022-12-09T19:43:46.033Z,12.20
2022-12-09T19:46:14.223Z,13.23
2022-12-09T19:48:46.173Z,11.88
2022-12-09T19:51:16.172Z,11.77
2022-12-09T19:53:43.858Z,13.00
2022-12-09T19:56:17.154Z,11.90
2022-12-09T19:58:44.533Z,11.97
2022-12-09T20:01:13.542Z,12.00
2022-12-09T20:03:42.147Z,12.48
2022-12-09T20:06:11.641Z,11.68
2022-12-09T20:08:38.840Z,12.32
2022-12-09T20:11:09.746Z,11.87
2022-12-09T20:13:36.854Z,11.55
2022-12-09T20:16:06.008Z,11.25
2022-12-09T20:18:33.276Z,11.48
2022-12-09T20:21:01.694Z,11.75
2022-12-09T20:23:28.986Z,11.77
2022-12-09T20:26:05.752Z,11.60
2022-12-09T20:28:32.873Z,11.75
2022-12-09T20:31:10.815Z,11.88
2022-12-09T20:33:38.305Z,12.23
2022-12-09T20:36:10.608Z,12.37
2022-12-09T20:38:38.499Z,11.57
2022-12-09T20:41:08.926Z,13.05
2022-12-09T20:43:45.352Z,12.25
2022-12-09T20:46:18.037Z,11.32
2022-12-09T20:48:45.532Z,12.87
2022-12-09T20:51:24.172Z,13.57
2022-12-09T20:53:51.689Z,11.93
2022-12-09T20:56:19.794Z,11.77
2022-12-09T20:58:47.981Z,12.82
2022-12-09T21:01:26.591Z,11.67
2022-12-09T21:03:54.764Z,11.88
2022-12-09T21:06:23.546Z,11.57
2022-12-09T21:08:51.482Z,11.52
2022-12-09T21:11:21.596Z,10.82
2022-12-09T21:13:50.830Z,11.47
2022-12-09T21:16:21.694Z,12.05
2022-12-09T21:18:49.984Z,12.77
2022-12-09T21:21:20.092Z,12.10
2022-12-09T21:23:47.669Z,11.20
2022-12-09T21:26:16.282Z,10.87
2022-12-09T21:28:44.573Z,11.65
2022-12-09T21:31:14.343Z,10.57
2022-12-09T21:33:42.581Z,11.10
2022-12-09T21:36:12.956Z,11.50
2022-12-09T21:38:40.392Z,11.50
2022-12-09T21:41:09.756Z,11.40
2022-12-09T21:43:37.701Z,11.63
2022-12-09T21:46:07.556Z,9.52
2022-12-09T21:48:34.704Z,10.85
2022-12-09T21:51:02.710Z,10.30
2022-12-09T21:53:30.407Z,11.60
2022-12-09T21:56:21.477Z,11.45
2022-12-09T21:58:51.438Z,10.77
2022-12-09T22:01:30.595Z,11.13
2022-12-09T22:03:58.879Z,11.80
2022-12-09T22:06:26.468Z,10.82
2022-12-09T22:08:53.765Z,11.85
2022-12-09T22:11:26.366Z,10.93
2022-12-09T22:13:56.226Z,10.05
2022-12-09T22:16:25.970Z,10.73
2022-12-09T22:18:55.154Z,9.52
2022-12-09T22:21:25.116Z,10.32
2022-12-09T22:23:54.463Z,10.23
2022-12-09T22:26:21.947Z,10.38
2022-12-09T22:28:49.332Z,9.73
2022-12-09T22:31:20.581Z,10.05
2022-12-09T22:33:49.260Z,9.85
2022-12-09T22:36:16.921Z,9.63
2022-12-09T22:38:44.172Z,9.73
2022-12-09T22:41:13.548Z,9.90
2022-12-09T22:43:41.481Z,8.55
2022-12-09T22:46:14.644Z,10.00
2022-12-09T22:48:44.946Z,9.75
2022-12-09T22:51:16.936Z,9.32
2022-12-09T22:53:44.443Z,9.30
2022-12-09T22:56:12.180Z,11.13
2022-12-09T22:58:39.316Z,9.23
2022-12-09T23:01:11.133Z,10.32
2022-12-09T23:03:38.330Z,10.23
2022-12-09T23:06:06.392Z,9.73
2022-12-09T23:08:33.812Z,10.32
2022-12-09T23:11:03.040Z,9.63
2022-12-09T23:13:31.661Z,9.73
2022-12-09T23:16:02.099Z,9.57
2022-12-09T23:18:33.444Z,10.13
2022-12-09T23:21:05.261Z,10.20
2022-12-09T23:23:32.740Z,8.57
2022-12-09T23:26:05.202Z,9.05
2022-12-09T23:28:35.519Z,9.38
2022-12-09T23:31:03.223Z,8.83
2022-12-09T23:33:30.398Z,9.15
2022-12-09T23:35:57.684Z,9.70
2022-12-09T23:38:24.783Z,9.25
2022-12-09T23:40:52.775Z,10.05
2022-12-09T23:43:20.269Z,9.83
2022-12-09T23:45:47.779Z,9.68
2022-12-09T23:48:14.888Z,9.85
2022-12-09T23:50:42.015Z,10.27
2022-12-09T23:53:09.117Z,9.75
2022-12-09T23:55:41.572Z,9.83
2022-12-09T23:58:08.914Z,9.57
